Time;durP1;ratioP1;P1;durP2;ratioP2;P2;SDS_P1;SDS_P2;PMS_P1;PMS_P2;Temp;Humidity;BMP_temperature;BMP_pressure;BME280_temperature;BME280_humidity;BME280_pressure;Samples;Min_cycle;Max_cycle;Signal;HPM_P1;HPM_P2
2022/09/10 00:00:06;;;;;;;7.78;6.20;;;21.30;99.90;;;;;;5014562;28;20052;-50
2022/09/10 00:02:32;;;;;;;10.13;6.10;;;21.10;99.90;;;;;;5014621;28;20037;-49
2022/09/10 00:05:01;;;;;;;10.38;5.57;;;21.20;99.90;;;;;;4997490;28;20034;-49
2022/09/10 00:07:27;;;;;;;11.95;6.60;;;21.30;99.90;;;;;;4997908;28;20045;-49
2022/09/10 00:09:52;;;;;;;11.15;6.55;;;21.30;99.90;;;;;;4997356;28;20044;-50
2022/09/10 00:12:18;;;;;;;10.88;6.68;;;21.30;99.90;;;;;;5015440;28;20037;-49
2022/09/10 00:14:44;;;;;;;7.22;6.53;;;21.30;99.90;;;;;;5016543;28;20092;-50
2022/09/10 00:17:10;;;;;;;9.77;6.47;;;21.20;99.90;;;;;;5015749;28;20042;-49
2022/09/10 00:19:36;;;;;;;11.70;6.30;;;21.30;99.90;;;;;;5015580;28;20492;-49
2022/09/10 00:22:01;;;;;;;7.57;6.18;;;21.20;99.90;;;;;;5015828;28;20058;-49
2022/09/10 00:24:27;;;;;;;10.50;6.55;;;21.20;99.90;;;;;;5014560;28;20033;-50
2022/09/10 00:26:53;;;;;;;10.57;6.43;;;21.20;99.90;;;;;;5015417;28;20038;-51
2022/09/10 00:29:19;;;;;;;8.00;6.00;;;21.20;99.90;;;;;;5015660;28;20033;-49
2022/09/10 00:31:45;;;;;;;10.30;6.03;;;21.30;99.90;;;;;;4964879;28;20053;-51
2022/09/10 00:34:13;;;;;;;12.45;5.90;;;21.40;99.90;;;;;;4985989;28;20513;-49
2022/09/10 00:36:42;;;;;;;8.32;6.75;;;21.50;99.90;;;;;;5014958;28;20076;-49
2022/09/10 00:39:14;;;;;;;13.18;5.70;;;21.40;99.90;;;;;;5015497;28;20049;-49
2022/09/10 00:41:42;;;;;;;13.57;5.78;;;21.40;99.90;;;;;;5010925;28;20033;-50
2022/09/10 00:44:36;;;;;;;9.45;5.97;;;21.30;99.90;;;;;;5015541;28;20030;-50
2022/09/10 00:47:03;;;;;;;11.40;6.00;;;21.10;99.90;;;;;;5015260;28;20072;-50
2022/09/10 00:49:38;;;;;;;6.82;5.50;;;21.10;99.90;;;;;;5015088;28;20108;-50
2022/09/10 00:52:05;;;;;;;7.85;5.68;;;21.10;99.90;;;;;;5014966;28;20038;-49
2022/09/10 00:54:34;;;;;;;7.60;5.13;;;21.20;99.90;;;;;;5014952;28;20393;-50
2022/09/10 00:57:05;;;;;;;7.85;5.30;;;21.10;99.90;;;;;;5014108;28;20033;-49
2022/09/10 00:59:32;;;;;;;9.65;5.85;;;21.20;99.90;;;;;;5014923;28;20460;-49
2022/09/10 01:01:58;;;;;;;7.40;5.00;;;21.30;99.90;;;;;;5015058;28;20061;-49
2022/09/10 01:04:25;;;;;;;10.57;5.47;;;21.30;99.90;;;;;;5014963;28;20049;-50
2022/09/10 01:06:51;;;;;;;9.88;5.07;;;21.40;99.90;;;;;;5014993;28;20036;-50
2022/09/10 01:09:20;;;;;;;14.27;5.13;;;21.40;99.90;;;;;;4996235;28;20516;-50
2022/09/10 01:11:58;;;;;;;7.05;4.97;;;21.50;99.90;;;;;;5014298;28;20370;-49
2022/09/10 01:14:47;;;;;;;6.82;4.70;;;21.30;99.90;;;;;;5010828;28;20034;-49
2022/09/10 01:17:37;;;;;;;13.82;5.40;;;21.40;99.90;;;;;;4994069;28;20383;-50
2022/09/10 01:20:33;;;;;;;9.70;5.90;;;21.40;99.90;;;;;;5014723;28;20029;-50
2022/09/10 01:23:10;;;;;;;7.90;5.70;;;21.10;99.90;;;;;;5014654;28;20038;-49
2022/09/10 01:26:14;;;;;;;6.97;5.70;;;21.00;99.90;;;;;;5014333;28;20034;-50
2022/09/10 01:29:01;;;;;;;8.93;6.20;;;20.90;99.90;;;;;;5010485;28;20030;-49
2022/09/10 01:31:31;;;;;;;11.40;5.75;;;20.80;99.90;;;;;;5011817;28;20034;-49
2022/09/10 01:34:20;;;;;;;9.85;6.10;;;20.80;99.90;;;;;;5009564;28;20038;-49
2022/09/10 01:36:50;;;;;;;8.95;6.22;;;20.80;99.90;;;;;;5009647;28;20029;-49
2022/09/10 01:39:19;;;;;;;6.97;6.05;;;20.90;99.90;;;;;;5013979;28;20108;-50
2022/09/10 01:41:47;;;;;;;6.90;6.28;;;20.90;99.90;;;;;;5012742;28;20025;-49
2022/09/10 01:44:40;;;;;;;7.85;5.90;;;21.00;99.90;;;;;;5013894;28;20048;-50
2022/09/10 01:47:30;;;;;;;7.45;6.35;;;21.10;99.90;;;;;;5009260;28;20034;-50
2022/09/10 01:50:14;;;;;;;13.48;7.82;;;21.10;99.90;;;;;;5013866;28;20608;-51
2022/09/10 01:53:21;;;;;;;10.43;6.72;;;21.00;99.90;;;;;;5006345;28;20061;-50
2022/09/10 01:56:20;;;;;;;6.97;6.18;;;20.90;99.90;;;;;;4953487;29;20043;-50
2022/09/10 01:58:47;;;;;;;10.80;6.18;;;21.00;99.90;;;;;;4948676;29;20359;-50
2022/09/10 02:01:30;;;;;;;10.20;6.88;;;21.00;99.90;;;;;;4953024;29;20051;-50
2022/09/10 02:04:06;;;;;;;9.13;6.82;;;21.10;99.90;;;;;;4954060;29;20039;-49
2022/09/10 02:06:36;;;;;;;13.13;7.30;;;21.10;99.90;;;;;;4953387;29;20035;-49
2022/09/10 02:09:02;;;;;;;10.77;6.68;;;21.20;99.90;;;;;;4952847;29;20058;-49
2022/09/10 02:11:30;;;;;;;9.80;6.15;;;21.20;99.90;;;;;;4953186;29;20043;-49
2022/09/10 02:13:57;;;;;;;16.88;7.22;;;21.30;99.90;;;;;;4953725;29;20034;-50
2022/09/10 02:16:32;;;;;;;14.68;8.48;;;21.30;99.90;;;;;;4952765;29;20051;-50
2022/09/10 02:18:59;;;;;;;14.98;8.70;;;21.30;99.90;;;;;;4952842;29;20167;-49
2022/09/10 02:21:25;;;;;;;122.60;14.55;;;21.20;99.90;;;;;;4952882;29;20035;-50
2022/09/10 02:23:55;;;;;;;144.68;17.67;;;21.20;99.90;;;;;;4921197;29;20053;-50
2022/09/10 02:26:22;;;;;;;81.55;17.85;;;21.20;99.90;;;;;;4952894;29;20039;-49
2022/09/10 02:28:50;;;;;;;325.38;25.10;;;21.10;99.90;;;;;;4960923;28;20145;-49
2022/09/10 02:31:17;;;;;;;103.10;17.33;;;21.00;99.90;;;;;;4994924;28;20068;-50
2022/09/10 02:33:43;;;;;;;157.00;22.05;;;20.80;99.90;;;;;;5013353;28;20034;-50
2022/09/10 02:36:09;;;;;;;167.88;23.48;;;20.70;99.90;;;;;;5012996;28;20096;-49
2022/09/10 02:38:35;;;;;;;193.07;26.08;;;20.80;99.90;;;;;;5013018;28;20137;-50
2022/09/10 02:41:01;;;;;;;271.60;27.60;;;20.80;99.90;;;;;;5012882;28;20033;-50
2022/09/10 02:43:27;;;;;;;204.25;23.70;;;20.80;99.90;;;;;;5013097;28;20092;-50
2022/09/10 02:45:57;;;;;;;311.00;29.77;;;20.90;99.90;;;;;;5012894;28;20018;-49
2022/09/10 02:48:25;;;;;;;304.00;27.60;;;20.80;99.90;;;;;;5013801;28;20029;-49
2022/09/10 02:50:51;;;;;;;221.63;26.73;;;20.90;99.90;;;;;;5012816;28;20033;-50
2022/09/10 02:53:17;;;;;;;278.33;29.48;;;20.90;99.90;;;;;;5012653;28;20046;-49
2022/09/10 02:55:47;;;;;;;328.73;32.47;;;20.80;99.90;;;;;;5012947;28;20076;-50
2022/09/10 02:58:15;;;;;;;151.18;27.40;;;20.80;99.90;;;;;;5013204;28;20520;-51
2022/09/10 03:00:41;;;;;;;122.85;25.35;;;20.80;99.90;;;;;;4994927;28;20060;-49
2022/09/10 03:03:07;;;;;;;83.80;24.75;;;20.80;99.90;;;;;;5012545;28;20030;-49
2022/09/10 03:05:35;;;;;;;143.30;29.90;;;20.70;99.90;;;;;;5012760;28;20084;-49
2022/09/10 03:08:01;;;;;;;81.28;24.90;;;20.70;99.90;;;;;;5012611;28;20061;-50
2022/09/10 03:10:27;;;;;;;105.60;26.35;;;20.70;99.90;;;;;;4946674;28;20351;-49
2022/09/10 03:12:53;;;;;;;94.18;27.23;;;20.70;99.90;;;;;;4994323;28;20088;-49
2022/09/10 03:15:19;;;;;;;156.70;30.30;;;20.60;99.90;;;;;;5012821;28;20030;-49
2022/09/10 03:17:46;;;;;;;159.68;31.25;;;20.60;99.90;;;;;;5013610;28;20042;-49
2022/09/10 03:20:12;;;;;;;101.50;24.67;;;20.70;99.90;;;;;;5012762;28;20104;-50
2022/09/10 03:22:38;;;;;;;99.00;29.45;;;20.70;99.90;;;;;;5012484;28;20033;-49
2022/09/10 03:25:05;;;;;;;89.55;27.52;;;20.70;99.90;;;;;;4995048;28;20541;-49
2022/09/10 03:27:31;;;;;;;143.45;30.85;;;20.60;99.90;;;;;;5012572;28;20034;-49
2022/09/10 03:29:56;;;;;;;48.45;22.80;;;20.50;99.90;;;;;;5012674;28;20480;-49
2022/09/10 03:32:22;;;;;;;40.42;21.48;;;20.50;99.90;;;;;;5012234;28;20108;-49
2022/09/10 03:34:48;;;;;;;37.55;19.00;;;20.50;99.90;;;;;;5013552;28;20036;-49
2022/09/10 03:37:15;;;;;;;38.70;20.85;;;20.50;99.90;;;;;;4994164;28;20037;-49
2022/09/10 03:39:41;;;;;;;52.42;22.23;;;20.40;99.90;;;;;;5012255;28;20034;-49
2022/09/10 03:42:07;;;;;;;63.92;23.50;;;20.50;99.90;;;;;;5012351;28;20036;-50
2022/09/10 03:44:33;;;;;;;49.83;22.65;;;20.50;99.90;;;;;;4994053;28;20038;-49
2022/09/10 03:47:00;;;;;;;77.60;26.08;;;20.50;99.90;;;;;;5012420;28;20088;-49
2022/09/10 03:49:26;;;;;;;70.50;25.67;;;20.50;99.90;;;;;;5013062;28;20038;-49
2022/09/10 03:51:52;;;;;;;77.20;23.95;;;20.40;99.90;;;;;;5012363;28;20482;-49
2022/09/10 03:54:18;;;;;;;86.70;27.80;;;20.40;99.90;;;;;;5012284;28;20037;-49
2022/09/10 03:56:44;;;;;;;62.53;25.48;;;20.40;99.90;;;;;;5010388;28;20099;-49
2022/09/10 03:59:13;;;;;;;74.18;26.27;;;20.40;99.90;;;;;;5013781;28;20112;-49
2022/09/10 04:01:40;;;;;;;81.68;26.70;;;20.40;99.90;;;;;;5016152;28;20026;-50
2022/09/10 04:04:07;;;;;;;52.20;22.00;;;20.50;99.90;;;;;;5016475;28;20099;-50
2022/09/10 04:06:34;;;;;;;146.35;27.45;;;20.40;99.90;;;;;;4997584;28;20473;-49
2022/09/10 04:09:00;;;;;;;96.40;28.70;;;20.30;99.90;;;;;;5015633;28;20046;-50
2022/09/10 04:11:26;;;;;;;76.97;26.13;;;20.40;99.90;;;;;;4997154;28;20563;-50
2022/09/10 04:13:56;;;;;;;119.78;27.70;;;20.50;99.90;;;;;;5011650;28;20040;-50
2022/09/10 04:16:22;;;;;;;66.20;26.02;;;20.60;99.90;;;;;;5015529;28;20121;-49
2022/09/10 04:18:49;;;;;;;68.28;26.75;;;20.70;99.90;;;;;;5015005;28;20454;-50
2022/09/10 04:21:14;;;;;;;53.70;25.75;;;20.70;99.90;;;;;;5015388;28;20135;-50
2022/09/10 04:23:40;;;;;;;65.95;25.17;;;20.70;99.90;;;;;;5015694;28;20014;-49
2022/09/10 04:26:16;;;;;;;78.13;26.77;;;20.80;99.90;;;;;;4965118;28;20038;-49
2022/09/10 04:28:42;;;;;;;67.90;26.10;;;20.90;99.90;;;;;;5015426;28;20136;-49
2022/09/10 04:31:08;;;;;;;42.15;19.65;;;20.90;99.90;;;;;;4997264;28;20092;-50
2022/09/10 04:33:34;;;;;;;70.38;26.08;;;20.80;99.90;;;;;;5015713;28;20045;-50
2022/09/10 04:36:00;;;;;;;43.30;22.58;;;20.80;99.90;;;;;;4997216;28;20500;-49
2022/09/10 04:38:29;;;;;;;56.67;24.92;;;20.90;99.90;;;;;;4948678;28;20041;-50
2022/09/10 04:41:01;;;;;;;54.35;25.65;;;20.90;99.90;;;;;;5015116;28;20549;-49
2022/09/10 04:43:28;;;;;;;51.53;24.55;;;20.90;99.90;;;;;;5014747;28;20462;-50
2022/09/10 04:45:54;;;;;;;51.67;25.48;;;20.90;99.90;;;;;;5014983;28;20096;-49
2022/09/10 04:48:21;;;;;;;52.88;25.30;;;20.80;99.90;;;;;;5014905;28;20030;-50
2022/09/10 04:50:48;;;;;;;46.90;23.15;;;20.80;99.90;;;;;;5007005;28;20465;-50
2022/09/10 04:53:15;;;;;;;53.10;24.63;;;20.70;99.90;;;;;;5015201;28;20092;-50
2022/09/10 04:55:43;;;;;;;55.40;27.00;;;20.60;99.90;;;;;;5014602;28;20499;-49
2022/09/10 04:58:09;;;;;;;44.42;24.45;;;20.60;99.90;;;;;;5006266;28;20026;-49
2022/09/10 05:00:35;;;;;;;43.60;24.58;;;20.60;99.90;;;;;;5014578;28;20030;-49
2022/09/10 05:03:03;;;;;;;39.10;23.23;;;20.60;99.90;;;;;;5014754;28;20484;-49
2022/09/10 05:05:29;;;;;;;42.35;22.52;;;20.50;99.90;;;;;;4997092;28;20049;-49
2022/09/10 05:07:55;;;;;;;36.45;21.25;;;20.60;99.90;;;;;;5014374;28;20100;-49
2022/09/10 05:10:23;;;;;;;33.65;20.90;;;20.70;99.90;;;;;;5014470;28;20124;-49
2022/09/10 05:12:49;;;;;;;37.92;20.92;;;20.70;99.90;;;;;;5014215;28;20103;-49
2022/09/10 05:15:15;;;;;;;27.25;18.23;;;20.80;99.90;;;;;;5011057;28;20026;-50
2022/09/10 05:17:41;;;;;;;30.05;18.52;;;20.70;99.90;;;;;;4963819;28;20609;-50
2022/09/10 05:20:07;;;;;;;32.70;19.45;;;20.60;99.90;;;;;;5014398;28;20052;-50
2022/09/10 05:22:35;;;;;;;23.85;15.00;;;20.60;99.90;;;;;;4947528;28;20465;-49
2022/09/10 05:25:01;;;;;;;15.27;10.68;;;20.50;99.90;;;;;;4897673;28;20518;-50
2022/09/10 05:27:27;;;;;;;15.85;10.50;;;;;;;;;;5001265;28;20034;-50
2022/09/10 05:29:53;;;;;;;15.75;11.27;;;20.40;99.90;;;;;;5013933;28;20032;-48
2022/09/10 05:32:19;;;;;;;10.60;8.18;;;20.50;99.90;;;;;;4992074;28;20488;-49
2022/09/10 05:34:47;;;;;;;8.38;5.53;;;20.50;99.90;;;;;;4944120;28;20118;-48
2022/09/10 05:37:14;;;;;;;8.55;6.32;;;20.30;99.90;;;;;;4992064;28;20042;-49
2022/09/10 05:39:40;;;;;;;8.13;6.25;;;20.30;99.90;;;;;;4992164;28;20541;-49
2022/09/10 05:42:06;;;;;;;8.80;6.95;;;20.40;99.90;;;;;;4992299;28;20510;-48
2022/09/10 05:44:32;;;;;;;10.35;7.95;;;20.50;99.90;;;;;;4944354;28;20497;-48
2022/09/10 05:46:58;;;;;;;8.50;5.95;;;20.60;99.90;;;;;;4992447;28;20038;-49
2022/09/10 05:49:25;;;;;;;7.90;5.88;;;20.70;99.90;;;;;;4992098;28;20036;-48
2022/09/10 05:51:50;;;;;;;4.57;3.78;;;20.80;99.90;;;;;;4991765;28;20498;-48
2022/09/10 05:54:16;;;;;;;4.93;3.83;;;20.60;99.90;;;;;;4992570;28;20034;-48
2022/09/10 05:56:42;;;;;;;4.72;3.58;;;20.50;99.90;;;;;;4991838;28;20089;-48
2022/09/10 05:59:09;;;;;;;6.00;3.45;;;20.60;99.90;;;;;;4992617;28;20097;-48
2022/09/10 06:01:35;;;;;;;4.05;2.72;;;20.70;99.90;;;;;;4975477;28;20121;-49
2022/09/10 06:04:02;;;;;;;4.53;3.00;;;20.80;99.90;;;;;;5009072;28;20041;-49
2022/09/10 06:06:28;;;;;;;3.20;2.13;;;21.00;99.90;;;;;;5014394;28;20108;-49
2022/09/10 06:08:54;;;;;;;4.07;2.30;;;20.90;99.90;;;;;;4994884;28;20140;-49
2022/09/10 06:11:20;;;;;;;2.65;1.80;;;21.10;99.90;;;;;;5013417;28;20025;-49
2022/09/10 06:13:46;;;;;;;2.97;1.83;;;21.20;99.90;;;;;;5013111;28;20048;-50
2022/09/10 06:16:12;;;;;;;3.42;1.90;;;21.30;99.90;;;;;;4930996;28;20069;-49
2022/09/10 06:18:38;;;;;;;2.90;1.85;;;21.20;99.90;;;;;;5003891;28;20440;-49
2022/09/10 06:21:06;;;;;;;2.90;1.60;;;21.40;99.90;;;;;;5014373;28;20385;-49
2022/09/10 06:23:32;;;;;;;3.90;1.55;;;21.40;99.90;;;;;;4994573;28;20038;-50
2022/09/10 06:26:07;;;;;;;3.22;1.50;;;21.40;99.90;;;;;;5013270;28;20033;-49
2022/09/10 06:28:33;;;;;;;2.67;1.20;;;21.20;99.90;;;;;;5013415;28;20038;-50
2022/09/10 06:31:00;;;;;;;3.38;1.65;;;21.10;99.90;;;;;;5013648;28;20116;-49
2022/09/10 06:33:25;;;;;;;3.83;1.77;;;21.10;99.90;;;;;;5012996;28;20049;-49
2022/09/10 06:35:56;;;;;;;3.47;1.80;;;21.10;99.90;;;;;;5011605;28;20045;-50
2022/09/10 06:38:23;;;;;;;2.80;2.40;;;21.20;99.90;;;;;;5013318;28;20112;-50
2022/09/10 06:40:58;;;;;;;3.90;2.85;;;21.30;99.90;;;;;;5012937;28;20030;-51
2022/09/10 06:43:24;;;;;;;5.35;2.58;;;21.40;99.90;;;;;;4987876;28;20157;-50
2022/09/10 06:45:52;;;;;;;4.38;2.78;;;21.40;99.90;;;;;;4983985;28;20137;-49
2022/09/10 06:48:26;;;;;;;6.80;3.10;;;21.50;99.90;;;;;;4986897;28;20038;-50
2022/09/10 06:50:52;;;;;;;3.75;2.78;;;21.70;99.90;;;;;;4987463;28;20097;-49
2022/09/10 06:53:20;;;;;;;5.82;2.83;;;21.90;99.90;;;;;;4983197;28;20042;-49
2022/09/10 06:55:47;;;;;;;5.97;2.78;;;22.20;99.90;;;;;;4991071;28;20474;-50
2022/09/10 06:58:13;;;;;;;5.30;2.20;;;22.40;99.90;;;;;;4991120;28;20185;-50
2022/09/10 07:00:40;;;;;;;4.13;2.60;;;22.60;99.90;;;;;;4942888;28;20113;-50
2022/09/10 07:03:05;;;;;;;6.25;3.42;;;22.60;99.90;;;;;;4991009;28;20069;-49
2022/09/10 07:05:34;;;;;;;4.13;3.00;;;22.60;99.90;;;;;;4991517;28;20482;-49
2022/09/10 07:08:00;;;;;;;4.60;2.83;;;22.50;99.90;;;;;;4957880;28;20438;-49
2022/09/10 07:10:27;;;;;;;7.53;3.30;;;22.50;99.90;;;;;;4990967;28;20031;-50
2022/09/10 07:12:53;;;;;;;4.45;2.72;;;22.50;99.90;;;;;;4991501;28;20376;-49
2022/09/10 07:15:19;;;;;;;5.07;2.63;;;22.60;99.90;;;;;;4945898;28;20041;-49
2022/09/10 07:17:44;;;;;;;5.72;3.08;;;22.60;99.90;;;;;;5012541;28;20493;-49
2022/09/10 07:20:11;;;;;;;6.07;3.42;;;22.60;99.90;;;;;;5012657;28;20483;-50
2022/09/10 07:22:38;;;;;;;4.25;3.05;;;22.40;99.90;;;;;;4994484;28;20564;-50
2022/09/10 07:25:06;;;;;;;10.35;7.95;;;22.40;99.90;;;;;;5012460;28;20042;-49
2022/09/10 07:27:32;;;;;;;6.53;3.80;;;22.40;99.90;;;;;;4954774;28;20046;-49
2022/09/10 07:29:58;;;;;;;5.03;3.15;;;22.40;99.90;;;;;;5012832;28;20528;-49
2022/09/10 07:32:23;;;;;;;8.10;4.05;;;22.40;99.90;;;;;;5012437;28;20038;-50
2022/09/10 07:34:49;;;;;;;5.65;3.42;;;22.40;99.90;;;;;;4996015;28;20034;-49
2022/09/10 07:37:15;;;;;;;5.38;3.80;;;22.50;99.90;;;;;;4998302;28;20125;-49
2022/09/10 07:39:41;;;;;;;4.80;3.65;;;22.30;99.90;;;;;;5012146;28;20030;-50
2022/09/10 07:42:06;;;;;;;8.65;3.60;;;22.30;99.90;;;;;;5017158;28;20458;-49
2022/09/10 07:44:32;;;;;;;6.15;3.13;;;22.40;99.90;;;;;;4998224;28;20041;-50
2022/09/10 07:46:58;;;;;;;5.05;2.85;;;22.70;99.90;;;;;;5015829;28;20026;-50
2022/09/10 07:49:26;;;;;;;5.22;3.25;;;22.90;99.90;;;;;;4998037;28;20189;-50
2022/09/10 07:51:53;;;;;;;8.02;3.70;;;23.00;99.90;;;;;;5016475;28;20030;-50
2022/09/10 07:54:19;;;;;;;9.77;4.30;;;23.20;99.90;;;;;;5016068;28;20124;-50
2022/09/10 07:56:45;;;;;;;6.95;2.90;;;23.50;99.90;;;;;;4997825;28;20038;-50
2022/09/10 07:59:12;;;;;;;3.40;2.95;;;23.70;99.90;;;;;;5011543;28;20037;-50
2022/09/10 08:01:37;;;;;;;6.30;3.40;;;23.30;99.90;;;;;;5015568;28;20036;-50
2022/09/10 08:04:04;;;;;;;5.28;2.97;;;23.20;99.90;;;;;;5015898;28;20381;-50
2022/09/10 08:06:31;;;;;;;4.47;2.67;;;;;;;;;;5015778;28;20548;-50
2022/09/10 08:08:56;;;;;;;10.23;2.92;;;22.90;99.90;;;;;;5013550;28;20046;-51
2022/09/10 08:11:22;;;;;;;5.60;3.20;;;22.80;99.90;;;;;;5016030;28;20034;-50
2022/09/10 08:13:50;;;;;;;9.82;3.70;;;22.70;99.90;;;;;;4997316;28;20046;-50
2022/09/10 08:16:18;;;;;;;5.47;3.33;;;22.60;99.90;;;;;;5015144;28;20038;-50
2022/09/10 08:18:46;;;;;;;7.55;3.67;;;22.90;99.90;;;;;;4993931;28;20069;-50
2022/09/10 08:21:12;;;;;;;4.38;3.30;;;23.30;99.90;;;;;;4994259;28;20078;-50
2022/09/10 08:23:38;;;;;;;8.68;3.63;;;23.40;99.90;;;;;;4993611;28;20038;-50
2022/09/10 08:26:07;;;;;;;4.35;2.88;;;23.50;99.90;;;;;;4993597;28;20030;-50
2022/09/10 08:28:36;;;;;;;3.22;2.50;;;23.40;99.90;;;;;;4993579;28;20449;-50
2022/09/10 08:31:06;;;;;;;4.68;2.45;;;23.20;99.90;;;;;;4994208;28;20044;-50
2022/09/10 08:33:34;;;;;;;4.10;2.28;;;23.00;99.90;;;;;;4993443;28;20109;-51
2022/09/10 08:36:01;;;;;;;5.20;2.28;;;;;;;;;;4993511;28;20073;-51
2022/09/10 08:38:38;;;;;;;3.10;2.15;;;23.80;99.90;;;;;;4993377;28;20123;-50
2022/09/10 08:41:12;;;;;;;3.15;2.00;;;24.30;99.90;;;;;;4993174;28;20026;-50
2022/09/10 08:43:47;;;;;;;4.13;2.00;;;23.90;99.90;;;;;;4993392;28;20042;-50
2022/09/10 08:46:21;;;;;;;3.15;1.90;;;24.00;99.90;;;;;;4993552;28;20502;-49
2022/09/10 08:49:07;;;;;;;3.40;2.10;;;24.00;99.90;;;;;;4995678;28;20031;-50
2022/09/10 08:51:47;;;;;;;3.83;1.60;;;24.00;99.90;;;;;;5014918;28;20021;-50
2022/09/10 08:54:23;;;;;;;5.25;1.73;;;24.00;99.90;;;;;;5015960;28;20045;-52
2022/09/10 08:56:49;;;;;;;2.95;1.20;;;24.50;99.90;;;;;;5015173;28;20382;-49
2022/09/10 08:59:28;;;;;;;2.95;1.38;;;24.40;99.90;;;;;;5014676;28;20044;-49
2022/09/10 09:02:00;;;;;;;3.00;1.42;;;24.50;99.90;;;;;;5008193;28;20037;-49
2022/09/10 09:04:39;;;;;;;2.13;1.40;;;24.00;99.90;;;;;;5014615;28;20492;-48
2022/09/10 09:07:13;;;;;;;2.30;1.13;;;23.90;99.90;;;;;;5014825;28;20050;-49
2022/09/10 09:09:39;;;;;;;4.47;1.48;;;23.90;99.90;;;;;;5014438;28;20072;-50
2022/09/10 09:12:17;;;;;;;5.05;1.50;;;24.60;99.90;;;;;;5014341;28;20034;-50
2022/09/10 09:14:52;;;;;;;5.30;1.35;;;;;;;;;;5012848;28;20073;-49
2022/09/10 09:17:47;;;;;;;2.10;1.30;;;25.60;99.90;;;;;;5014635;28;20466;-51
2022/09/10 09:20:21;;;;;;;2.05;1.27;;;25.60;99.90;;;;;;5014484;28;20022;-49
2022/09/10 09:34:49;;;;;;;3.83;1.98;;;25.60;99.90;;;;;;5063681;28;20953;-48
2022/09/10 09:37:22;;;;;;;2.35;1.30;;;25.30;99.90;;;;;;5056637;28;20075;-48
2022/09/10 09:40:05;;;;;;;1.92;1.60;;;25.00;99.90;;;;;;5093447;28;20076;-48
2022/09/10 09:42:50;;;;;;;2.47;1.65;;;25.20;99.90;;;;;;5090906;28;20459;-48
2022/09/10 09:45:16;;;;;;;2.72;2.05;;;25.60;99.90;;;;;;5088761;28;20118;-48
2022/09/10 09:47:45;;;;;;;2.95;1.38;;;25.60;99.90;;;;;;5097849;28;20071;-49
2022/09/10 09:50:11;;;;;;;2.35;1.58;;;;;;;;;;5097926;28;20059;-48
2022/09/10 09:52:39;;;;;;;2.70;1.30;;;26.20;99.90;;;;;;5102599;28;20024;-48
2022/09/10 09:55:16;;;;;;;3.28;1.50;;;26.70;99.90;;;;;;5096982;28;20040;-49
2022/09/10 09:57:41;;;;;;;2.00;1.17;;;26.70;99.90;;;;;;5089316;28;20511;-48
2022/09/10 10:00:28;;;;;;;2.13;1.15;;;;;;;;;;5098374;28;20135;-48
2022/09/10 10:02:54;;;;;;;3.17;1.30;;;;;;;;;;5096194;28;20438;-48
2022/09/10 10:05:24;;;;;;;6.03;1.52;;;26.90;99.90;;;;;;5105390;28;20082;-49
2022/09/10 10:07:51;;;;;;;1.85;1.00;;;27.10;99.90;;;;;;5095805;28;20028;-49
2022/09/10 10:10:26;;;;;;;1.60;1.15;;;26.40;99.90;;;;;;5086269;28;20045;-48
2022/09/10 10:12:54;;;;;;;1.55;1.00;;;27.00;99.90;;;;;;5090231;28;20037;-48
2022/09/10 10:15:40;;;;;;;4.53;1.20;;;27.00;99.90;;;;;;5067329;28;20055;-48
2022/09/10 10:18:21;;;;;;;2.13;1.20;;;26.60;99.90;;;;;;5056918;28;20495;-48
2022/09/10 10:21:04;;;;;;;1.95;1.20;;;26.80;99.90;;;;;;5056944;28;20029;-48
2022/09/10 10:23:35;;;;;;;2.50;1.17;;;26.80;99.90;;;;;;5064653;28;20427;-49
2022/09/10 10:26:21;;;;;;;3.50;1.10;;;;;;;;;;5054790;28;20044;-49
2022/09/10 10:28:55;;;;;;;3.38;1.20;;;27.40;99.90;;;;;;5058745;28;20122;-48
2022/09/10 10:31:22;;;;;;;3.45;1.10;;;27.10;99.90;;;;;;5058561;28;20029;-48
2022/09/10 10:34:15;;;;;;;3.58;1.10;;;26.80;99.90;;;;;;5054549;28;20099;-49
2022/09/10 10:36:47;;;;;;;2.08;1.50;;;27.20;99.90;;;;;;5046399;28;20033;-49
2022/09/10 10:39:40;;;;;;;1.25;0.90;;;;;;;;;;5052419;28;20104;-48
2022/09/10 10:42:19;;;;;;;3.08;1.40;;;27.60;99.90;;;;;;5037780;28;20052;-48
2022/09/10 10:44:51;;;;;;;2.80;1.10;;;;;;;;;;5037889;28;20170;-48
2022/09/10 10:47:21;;;;;;;2.22;1.00;;;;;;;;;;5035376;28;20037;-48
2022/09/10 10:49:53;;;;;;;2.35;0.98;;;;;;;;;;5043300;28;20030;-48
2022/09/10 10:52:23;;;;;;;2.78;1.08;;;;;;;;;;5046882;28;20031;-48
2022/09/10 10:55:08;;;;;;;1.20;0.90;;;;;;;;;;5046382;28;20038;-49
2022/09/10 10:57:40;;;;;;;2.05;0.93;;;;;;;;;;5063311;28;20041;-48
2022/09/10 11:00:11;;;;;;;1.67;1.30;;;;;;;;;;5047047;28;20102;-48
2022/09/10 11:02:38;;;;;;;4.13;1.05;;;;;;;;;;5034809;28;20041;-48
2022/09/10 11:05:17;;;;;;;1.40;1.00;;;;;;;;;;5043496;28;20037;-48
2022/09/10 11:07:45;;;;;;;2.75;1.40;;;;;;;;;;5058131;28;20033;-49
2022/09/10 11:10:11;;;;;;;2.25;1.10;;;;;;;;;;5046409;28;20036;-49
2022/09/10 11:12:51;;;;;;;1.23;1.00;;;26.50;99.90;;;;;;5050947;28;20032;-48
2022/09/10 11:15:40;;;;;;;1.95;1.35;;;26.50;99.90;;;;;;5044854;28;20104;-48
2022/09/10 11:31:41;;;;;;;3.60;1.20;;;;;;;;;;5145405;27;20893;-49
2022/09/10 11:34:23;;;;;;;2.10;0.95;;;28.00;99.90;;;;;;5139044;27;20143;-49
2022/09/10 11:37:04;;;;;;;2.63;1.13;;;27.40;99.90;;;;;;5141179;27;20366;-49
2022/09/10 11:39:38;;;;;;;2.35;1.00;;;;;;;;;;5147673;27;20087;-49
2022/09/10 11:42:23;;;;;;;2.67;1.10;;;26.30;99.90;;;;;;5139061;27;20114;-49
2022/09/10 11:45:01;;;;;;;2.67;1.20;;;26.50;99.90;;;;;;5111294;28;20490;-49
2022/09/10 11:47:37;;;;;;;4.50;1.30;;;27.10;99.90;;;;;;5135576;27;20085;-49
2022/09/10 11:50:20;;;;;;;2.05;1.10;;;27.30;99.90;;;;;;5147100;27;20050;-50
2022/09/10 11:52:46;;;;;;;3.45;1.33;;;28.00;99.90;;;;;;5132041;27;20039;-49
2022/09/10 11:55:20;;;;;;;3.72;1.58;;;28.60;99.90;;;;;;5098285;27;20568;-49
2022/09/10 11:57:49;;;;;;;2.65;1.00;;;;;;;;;;5141703;27;20027;-49
2022/09/10 12:00:17;;;;;;;4.43;0.93;;;29.90;99.90;;;;;;5136294;27;20036;-49
2022/09/10 12:03:25;;;;;;;1.90;1.10;;;29.80;99.90;;;;;;5137997;27;20039;-49
2022/09/10 12:06:00;;;;;;;2.72;1.30;;;29.40;99.90;;;;;;5134479;27;20039;-49
2022/09/10 12:08:50;;;;;;;5.22;1.38;;;29.10;99.90;;;;;;5131779;27;20024;-49
2022/09/10 12:11:19;;;;;;;3.13;1.38;;;28.80;99.90;;;;;;5131228;27;20030;-49
2022/09/10 12:13:48;;;;;;;1.75;1.00;;;28.40;99.90;;;;;;5131214;27;20098;-49
2022/09/10 12:16:29;;;;;;;0.93;0.80;;;28.70;99.90;;;;;;5129639;27;20036;-49
2022/09/10 12:18:56;;;;;;;1.58;0.90;;;27.90;99.90;;;;;;5127435;27;20040;-49
2022/09/10 12:21:51;;;;;;;2.65;1.50;;;27.30;99.90;;;;;;5141606;27;20542;-49
2022/09/10 12:24:30;;;;;;;2.45;1.08;;;27.20;99.90;;;;;;5103818;28;20115;-50
2022/09/10 12:27:00;;;;;;;1.02;0.82;;;27.50;99.90;;;;;;5088572;28;20036;-49
2022/09/10 12:29:38;;;;;;;2.33;1.00;;;27.90;99.90;;;;;;5030421;28;20539;-49
2022/09/10 12:32:07;;;;;;;2.63;1.40;;;28.00;99.90;;;;;;5080537;28;20514;-50
2022/09/10 12:34:36;;;;;;;1.70;1.02;;;28.40;99.90;;;;;;5081149;28;20040;-50
2022/09/10 12:37:02;;;;;;;4.45;1.05;;;28.30;99.90;;;;;;5084059;28;20032;-49
2022/09/10 12:39:28;;;;;;;1.40;0.80;;;27.90;99.90;;;;;;5077535;28;20064;-49
2022/09/10 12:41:59;;;;;;;1.48;1.00;;;27.50;99.90;;;;;;5059610;28;20036;-49
2022/09/10 12:44:33;;;;;;;2.08;0.80;;;27.80;99.90;;;;;;5083629;28;20055;-49
2022/09/10 12:47:17;;;;;;;1.15;1.05;;;27.90;99.90;;;;;;5084439;28;20040;-49
2022/09/10 12:50:01;;;;;;;3.00;0.80;;;28.00;99.90;;;;;;5073990;28;20024;-49
2022/09/10 12:52:47;;;;;;;2.50;1.13;;;28.30;99.90;;;;;;5079456;28;20028;-49
2022/09/10 12:55:49;;;;;;;1.17;0.88;;;28.40;99.90;;;;;;4972677;28;20069;-49
2022/09/10 12:58:39;;;;;;;;;;;28.40;99.90;;;;;;4973259;28;20035;-49
2022/09/10 13:01:29;;;;;;;1.23;1.00;;;28.00;99.90;;;;;;4994567;28;19924;-49
2022/09/10 13:03:59;;;;;;;1.88;0.98;;;28.00;99.90;;;;;;5020258;28;20507;-49
2022/09/10 13:06:37;;;;;;;2.35;1.00;;;28.00;99.90;;;;;;5021461;28;20121;-49
2022/09/10 13:09:13;;;;;;;1.70;0.80;;;27.70;99.90;;;;;;5019002;28;20456;-49
2022/09/10 13:11:51;;;;;;;3.03;1.00;;;27.20;99.90;;;;;;5018869;28;20034;-49
2022/09/10 13:14:26;;;;;;;3.88;1.10;;;26.90;99.90;;;;;;5018574;28;20481;-49
2022/09/10 13:16:54;;;;;;;2.30;1.20;;;27.20;99.90;;;;;;5018784;28;20789;-48
2022/09/10 13:19:19;;;;;;;1.30;1.10;;;27.60;99.90;;;;;;5020690;28;20540;-49
2022/09/10 13:21:49;;;;;;;0.88;0.60;;;28.00;99.90;;;;;;5021920;28;20084;-48
2022/09/10 13:24:34;;;;;;;4.22;0.88;;;28.40;99.90;;;;;;5021552;28;20047;-49
2022/09/10 13:27:11;;;;;;;1.33;0.88;;;28.50;99.90;;;;;;5013905;28;20536;-49
2022/09/10 13:30:13;;;;;;;1.70;0.88;;;28.20;99.90;;;;;;5018291;28;20085;-49
2022/09/10 13:32:57;;;;;;;0.82;0.75;;;27.90;99.90;;;;;;5077468;27;20091;-49